To NAV CANADA Home Page Login to a new session Search on AWWS site Feedback and Comments Disclaimer Vers la page française équivalente Tips FAQ What's new on the site To the Forecasts and Observations / NOTAM section To "File a Flight Plan" website Publications and other links Update of the User's profile FIC Telephone Numbers My Weather Data Folder Route Weather Data Regional Weather Data Local Weather Data To the Forecasts and Observations / NOTAM section
Request Generated 04/30/2016 at 07:11:09 UTC . Weather information available at that time is displayed.

METAR/TAF

OTTAWA/MACDONALD-CARTIER INTL/ON    

METAR CYOW 300700Z 03008KT 15SM FEW200 BKN230 01/M06 A3018 RMK CI2CI3
SLP226=
METAR CYOW 300600Z 06004KT 15SM SCT200 BKN230 02/M06 A3018 RMK CI4CI1
SLP225=
METAR CYOW 300500Z 06003KT 15SM FEW210 03/M06 A3018 RMK CI2 SLP223=

TAF CYOW 300541Z 3006/0106 01006KT P6SM FEW240
BECMG 3013/3015 06008KT
RMK NXT FCST BY 300900Z=
Your time UTC time
Weather data provided by Environment Canada and NAV CANADA